Terminal Aerodrome Forecast
Issued by NWS

Home | Current Version | Previous Version | Graphics & Text | Print | Product List | Glossary On
Versions: 1 2 3 4 5 6 7 8 9 10 11 12 13 14 15 16 17 18 19 20 21
000
FTUS43 KICT 230520
TAFHUT
TAF
KHUT 230520Z 2306/2406 13004KT P6SM SCT050 BKN250
     FM231400 11013KT P6SM OVC025
     FM231700 11017KT P6SM OVC035=

USA.gov is the U.S. government's official web portal to all federal, state and local government web resources and services.